Buoy 13526

sailwx.info

Track history (hours):
 
Tides and Currents Weather Stations Pressure Air Temp Water Temp Dewpoint Dewpoint Depression Visibility Wind Speed Wind Dir Waves Ship Positions

Drifting buoy 13526

Last reported at 2017-May-01 20:48 UTC. Time now 2017-Jul-28 18:49 UTC.
Position N 25°28' W 076°37'.
Warning: this ship's position is months out of date.

Water temperature 31.2 ° C

Date/timePositionNaut miles runAvg speedWind from/ knotsBaromVisibWave heightAir tempDewpointWater temp
2017-May-01 20:48N 25°28' W 076°37'0 0.0 31.2
2017-May-01 19:06N 25°28' W 076°37'0 0.0 30.4
2017-May-01 15:31N 25°28' W 076°37'0 0.0 29.1
2017-May-01 15:28N 25°28' W 076°37'0 0.0 29.1
2017-May-01 14:44N 25°28' W 076°37'0 0.0 28.8
2017-May-01 14:40N 25°28' W 076°37'0 0.0 28.8
2017-May-01 13:50N 25°28' W 076°37'0 0.0 28.7
2017-May-01 13:02N 25°28' W 076°37'0 0.0 28.3
2017-May-01 12:59N 25°28' W 076°37'1 9.0 28.3
2017-May-01 12:55N 25°28' W 076°37'0 0.0 28.3
2017-May-01 12:13N 25°28' W 076°37'1 6.9 27.0
2017-May-01 12:06N 25°28' W 076°38'110.8 26.2
2017-May-01 12:03N 25°28' W 076°37'0 0.0 26.2
2017-May-01 11:20N 25°28' W 076°37'0 0.0 23.8
2017-May-01 10:34N 25°28' W 076°37'0 0.0 23.6
2017-May-01 10:29N 25°28' W 076°37'0 0.0 23.6
2017-May-01 10:26N 25°28' W 076°37'0 0.0 23.6
2017-May-01 09:31N 25°28' W 076°37'0 0.0 23.9
2017-May-01 09:26N 25°28' W 076°37'0 0.0 23.9
2017-May-01 07:50N 25°28' W 076°37'0 0.0 23.9
2017-May-01 03:06N 25°28' W 076°37'0 0.0 24.3
2017-May-01 03:01N 25°28' W 076°37'0 0.0 24.3
2017-May-01 02:18N 25°28' W 076°37'0 0.0 24.3
2017-May-01 01:22N 25°28' W 076°37'0 0.0 24.4
2017-May-01 01:20N 25°28' W 076°37'0 0.0 24.4
2017-May-01 00:54N 25°28' W 076°37'0 0.0 24.4
2017-May-01 00:31N 25°28' W 076°37'0 0.0 24.5
2017-May-01 00:28N 25°28' W 076°37'0 0.0 24.5
2017-Apr-30 23:51N 25°28' W 076°37'1 1.0 24.9
2017-Apr-30 23:19N 25°28' W 076°38'1 5.4 25.5
2017-Apr-30 23:13N 25°28' W 076°37'0 0.0 25.5
2017-Apr-30 22:50N 25°28' W 076°37'0 0.0 26.3
2017-Apr-30 22:47N 25°28' W 076°37'0 0.0 26.3
2017-Apr-30 22:11N 25°28' W 076°37'0 0.0 27.8
2017-Apr-30 22:05N 25°28' W 076°37'0 0.0 28.1
2017-Apr-30 21:35N 25°28' W 076°37'0 0.0 28.8
2017-Apr-30 21:02N 25°28' W 076°37'0 0.0 29.1
2017-Apr-30 20:59N 25°28' W 076°37'0 0.0 29.1
2017-Apr-30 19:21N 25°28' W 076°37'0 0.0 28.9
2017-Apr-30 19:15N 25°28' W 076°37'0 0.0 28.9
2017-Apr-30 15:51N 25°28' W 076°37'0 0.0 28.5
2017-Apr-30 15:02N 25°28' W 076°37'0 0.0 27.8
2017-Apr-30 14:05N 25°28' W 076°37'136.0 27.9
2017-Apr-30 14:04N 25°28' W 076°37'0 0.0 27.7
2017-Apr-30 13:10N 25°28' W 076°37'0 0.0 26.7
2017-Apr-30 13:06N 25°28' W 076°37'0 0.0 26.8
2017-Apr-30 12:36N 25°28' W 076°37'1 0.6 26.7
2017-Apr-30 11:32N 25°28' W 076°37'0 0.0 25.1
2017-Apr-30 11:24N 25°28' W 076°37'0 0.0 25.1
2017-Apr-30 10:57N 25°28' W 076°37'0 0.0 24.0
2017-Apr-30 09:42N 25°28' W 076°37'0 0.0 23.9
2017-Apr-30 09:37N 25°28' W 076°37'0 0.0 24.0
2017-Apr-30 09:16N 25°28' W 076°37'0 0.0 24.1
2017-Apr-30 09:13N 25°28' W 076°37'0 0.0 24.1
2017-Apr-30 08:05N 25°28' W 076°37'0 0.0 24.1
2017-Apr-30 08:00N 25°28' W 076°37'0 0.0 24.1
2017-Apr-30 07:57N 25°28' W 076°37'0 0.0 24.1
2017-Apr-30 03:26N 25°28' W 076°37'0 0.0 24.5
2017-Apr-30 03:21N 25°28' W 076°37'0 0.0
2017-Apr-30 02:42N 25°28' W 076°37'0 0.0 24.6
2017-Apr-30 02:37N 25°28' W 076°37'0 0.0 24.7
2017-Apr-30 01:48N 25°28' W 076°37'0 0.0 24.7
2017-Apr-30 01:40N 25°28' W 076°37'0 0.0 24.7
2017-Apr-30 00:37N 25°28' W 076°37'0 0.0 24.9
2017-Apr-30 00:14N 25°28' W 076°37'0 0.0 25.0
2017-Apr-29 23:50N 25°28' W 076°37'0 0.0 25.3
2017-Apr-29 23:47N 25°28' W 076°37'1 0.7 25.3
2017-Apr-29 23:02N 25°28' W 076°38'1 8.1 27.3
2017-Apr-29 22:58N 25°28' W 076°37'0 0.0 27.3
2017-Apr-29 22:36N 25°28' W 076°37'0 0.0 28.3
2017-Apr-29 22:06N 25°28' W 076°37'1 0.7 28.8
2017-Apr-29 21:12N 25°28' W 076°37'1 0.4 30.0
2017-Apr-29 19:32N 25°28' W 076°37'0 0.0 29.9
2017-Apr-29 19:28N 25°28' W 076°37'0 0.0 29.9
2017-Apr-29 19:26N 25°28' W 076°37'0 0.0 29.9
2017-Apr-29 16:11N 25°28' W 076°37'0 0.0 29.2
2017-Apr-29 16:10N 25°28' W 076°37'0 0.0 29.6
2017-Apr-29 15:24N 25°28' W 076°37'0 0.0 29.4
2017-Apr-29 14:33N 25°28' W 076°37'0 0.0 28.9
2017-Apr-29 14:27N 25°28' W 076°37'0 0.0 28.9
2017-Apr-29 13:41N 25°28' W 076°37'0 0.0 28.4
2017-Apr-29 13:21N 25°28' W 076°37'136.0 28.2
2017-Apr-29 13:20N 25°28' W 076°37'0 0.0 27.9
2017-Apr-29 13:03N 25°28' W 076°37'1 0.4 27.7
2017-Apr-29 11:43N 25°28' W 076°37'0 0.0 25.9
2017-Apr-29 11:37N 25°28' W 076°37'0 0.0 25.5
2017-Apr-29 11:29N 25°28' W 076°37'0 0.0 25.5
2017-Apr-29 11:28N 25°28' W 076°37'0 0.0 25.5
2017-Apr-29 11:22N 25°28' W 076°37'0 0.0 24.6
2017-Apr-29 09:51N 25°28' W 076°37'0 0.0
2017-Apr-29 09:50N 25°28' W 076°37'0 0.0 24.1
2017-Apr-29 09:45N 25°28' W 076°37'0 0.0 24.1
2017-Apr-29 08:15N 25°28' W 076°37'0 0.0 24.1
2017-Apr-29 08:10N 25°28' W 076°37'0 0.0 24.1
2017-Apr-29 03:45N 25°28' W 076°37'0 0.0 24.6
2017-Apr-29 03:02N 25°28' W 076°37'0 0.0 24.7
2017-Apr-29 02:59N 25°28' W 076°37'0 0.0 24.7
2017-Apr-29 02:03N 25°28' W 076°37'0 0.0 24.9
2017-Apr-29 02:00N 25°28' W 076°37'0 0.0 24.9
2017-Apr-29 01:21N 25°28' W 076°37'1 5.1 24.9
2017-Apr-29 01:14N 25°28' W 076°37'0 0.0 24.9
2017-Apr-29 00:51N 25°28' W 076°37'1 1.2 25.1
2017-Apr-29 00:21N 25°28' W 076°37'0 0.0 25.2
2017-Apr-29 00:18N 25°28' W 076°37'1 0.5 25.2
2017-Apr-28 23:13N 25°28' W 076°38'1 5.4 26.2
2017-Apr-28 23:07N 25°28' W 076°37'1 8.1
2017-Apr-28 23:03N 25°28' W 076°38'1 1.2 26.5
2017-Apr-28 22:36N 25°28' W 076°37'0 0.0 27.1
2017-Apr-28 22:32N 25°28' W 076°37'0 0.0 27.9
2017-Apr-28 21:21N 25°28' W 076°37'0 0.0 29.6
2017-Apr-28 19:45N 25°28' W 076°37'0 0.0 30.7
2017-Apr-28 19:42N 25°28' W 076°37'0 0.0 30.7
2017-Apr-28 19:36N 25°28' W 076°37'0 0.0 30.7
2017-Apr-28 16:30N 25°28' W 076°37'0 0.0 29.7
2017-Apr-28 15:46N 25°28' W 076°37'0 0.0 29.5
2017-Apr-28 14:52N 25°28' W 076°37'0 0.0 29.2
2017-Apr-28 14:49N 25°28' W 076°37'0 0.0 29.2
2017-Apr-28 14:03N 25°28' W 076°37'118.0 29.0
2017-Apr-28 14:01N 25°28' W 076°37'0 0.0 29.0
2017-Apr-28 13:32N 25°28' W 076°37'0 0.0 28.8
2017-Apr-28 13:11N 25°28' W 076°37'1 0.5 28.6
2017-Apr-28 12:00N 25°28' W 076°37'0 0.0 27.0
2017-Apr-28 11:51N 25°28' W 076°37'0 0.0 27.0
2017-Apr-28 11:49N 25°28' W 076°37'0 0.0 26.5
2017-Apr-28 10:20N 25°28' W 076°37'0 0.0 24.4
2017-Apr-28 10:04N 25°28' W 076°37'0 0.0 24.4
2017-Apr-28 08:29N 25°28' W 076°37'0 0.0 24.4
2017-Apr-28 08:25N 25°28' W 076°37'1 8.1 24.4
2017-Apr-28 08:21N 25°28' W 076°37'1 0.3 24.4
2017-Apr-28 06:43N 25°28' W 076°37'0 0.0
2017-Apr-28 03:20N 25°28' W 076°37'0 0.0 24.8
2017-Apr-28 03:17N 25°28' W 076°37'0 0.0 24.8
2017-Apr-28 02:30N 25°28' W 076°37'0 0.0 24.8
2017-Apr-28 01:41N 25°28' W 076°37'1 7.2 25.0
2017-Apr-28 01:36N 25°28' W 076°37'1 1.1 25.1
2017-Apr-28 01:04N 25°28' W 076°37'0 0.0 25.1
2017-Apr-28 00:49N 25°28' W 076°37'0 0.0 25.2
2017-Apr-28 00:45N 25°28' W 076°37'0 0.0 25.2
2017-Apr-28 00:42N 25°28' W 076°37'1 0.4 25.2
2017-Apr-27 23:21N 25°28' W 076°38'1 8.1 28.8
2017-Apr-27 23:17N 25°28' W 076°37'0 0.0 28.8
2017-Apr-27 23:13N 25°28' W 076°37'0 0.0 28.8
2017-Apr-27 23:06N 25°28' W 076°37'0 0.0 30.0
2017-Apr-27 21:46N 25°28' W 076°37'0 0.0 32.7
2017-Apr-27 21:35N 25°28' W 076°37'0 0.0 33.6
2017-Apr-27 19:51N 25°28' W 076°37'0 0.0
2017-Apr-27 19:50N 25°28' W 076°37'0 0.0 35.6
2017-Apr-27 16:04N 25°28' W 076°37'0 0.0 29.9
2017-Apr-27 15:14N 25°28' W 076°37'0 0.0 26.4
2017-Apr-27 15:10N 25°28' W 076°37'0 0.0 26.4
2017-Apr-27 14:21N 25°28' W 076°37'0 0.0 23.2
2017-Apr-27 13:46N 25°28' W 076°37'0 0.0 22.8
2017-Apr-27 13:31N 25°28' W 076°37'0 0.0 22.6
2017-Apr-27 12:13N 25°28' W 076°37'0 0.0 23.4
2017-Apr-27 12:05N 25°28' W 076°37'0 0.0
2017-Apr-27 12:03N 25°28' W 076°37'0 0.0 23.2
2017-Apr-27 10:51N 25°28' W 076°37'0 0.0 22.1
2017-Apr-27 10:45N 25°28' W 076°37'0 0.0 22.1
2017-Apr-27 10:22N 25°28' W 076°37'0 0.0
2017-Apr-27 10:15N 25°28' W 076°37'0 0.0 23.2
2017-Apr-27 09:06N 25°28' W 076°37'0 0.0 24.6
2017-Apr-27 08:35N 25°28' W 076°37'0 0.0 24.8
2017-Apr-27 06:57N 25°28' W 076°37'0 0.0 24.7
2017-Apr-27 06:52N 25°28' W 076°37'0 0.0 24.7
2017-Apr-27 03:37N 25°28' W 076°37'0 0.0 24.8
2017-Apr-27 02:48N 25°28' W 076°37'0 0.0 24.7
2017-Apr-27 02:44N 25°28' W 076°37'0 0.0 24.7
2017-Apr-27 02:01N 25°28' W 076°37'0 0.0 24.7
2017-Apr-27 01:56N 25°28' W 076°37'0 0.0 24.7
2017-Apr-27 01:16N 25°28' W 076°37'0 0.0 24.8
2017-Apr-27 01:06N 25°28' W 076°37'0 0.0 24.9
2017-Apr-27 01:03N 25°28' W 076°37'0 0.0 24.9
2017-Apr-26 23:52N 25°28' W 076°37'0 0.0 25.6
2017-Apr-26 23:49N 25°28' W 076°37'0 0.0 25.6
2017-Apr-26 23:44N 25°28' W 076°37'1 4.6 25.6
2017-Apr-26 23:37N 25°28' W 076°38'1 5.4 26.4
2017-Apr-26 23:31N 25°28' W 076°37'0 0.0 26.4
2017-Apr-26 22:12N 25°28' W 076°37'0 0.0 28.1
2017-Apr-26 22:05N 25°28' W 076°37'1 0.4 29.4
2017-Apr-26 20:05N 25°28' W 076°37'1 0.5 31.6
2017-Apr-26 18:22N 25°28' W 076°37'0 0.0 32.5
2017-Apr-26 15:35N 25°28' W 076°37'0 0.0 24.1
2017-Apr-26 15:32N 25°28' W 076°37'0 0.0 24.1
2017-Apr-26 14:45N 25°28' W 076°37'0 0.0 23.0
2017-Apr-26 13:51N 25°28' W 076°37'0 0.0 23.3
2017-Apr-26 12:37N 25°28' W 076°37'0 0.0 23.2
2017-Apr-26 12:16N 25°28' W 076°37'0 0.0 23.4
2017-Apr-26 11:22N 25°28' W 076°37'0 0.0 22.8
2017-Apr-26 10:59N 25°28' W 076°37'0 0.0 22.7
2017-Apr-26 10:36N 25°28' W 076°37'0 0.0
2017-Apr-26 09:43N 25°28' W 076°37'0 0.0 23.9
2017-Apr-26 09:36N 25°28' W 076°37'0 0.0 23.8
2017-Apr-26 08:49N 25°28' W 076°37'110.8 23.7
2017-Apr-26 08:46N 25°28' W 076°37'1 0.4 23.7
2017-Apr-26 07:09N 25°28' W 076°37'116.2 23.4
2017-Apr-26 07:06N 25°28' W 076°37'0 0.0 23.4
2017-Apr-26 03:05N 25°28' W 076°37'1 0.7 23.1
2017-Apr-26 02:21N 25°28' W 076°38'1 5.4 23.5
2017-Apr-26 02:15N 25°28' W 076°37'0 0.0 23.5
2017-Apr-26 01:29N 25°28' W 076°37'1 7.2 23.9
2017-Apr-26 01:24N 25°28' W 076°37'1 0.5 24.0
2017-Apr-26 00:15N 25°28' W 076°37'0 0.0 25.5
2017-Apr-26 00:11N 25°28' W 076°37'1 3.4 25.5
2017-Apr-25 23:49N 25°28' W 076°36'1 1.0 28.3
2017-Apr-25 22:34N 25°28' W 076°37'0 0.0 32.6
2017-Apr-25 22:32N 25°28' W 076°37'0 0.0 32.6
2017-Apr-25 22:06N 25°28' W 076°37'0 0.0
2017-Apr-25 22:02N 25°28' W 076°37'0 0.0 33.2
2017-Apr-25 20:21N 25°28' W 076°37'0 0.0 31.8
2017-Apr-25 20:18N 25°28' W 076°37'1 7.2 31.8
2017-Apr-25 20:13N 25°28' W 076°37'0 0.0 31.8
2017-Apr-25 18:36N 25°28' W 076°37'112.0 30.5
2017-Apr-25 18:33N 25°28' W 076°37'0 0.0
2017-Apr-25 15:52N 25°28' W 076°37'0 0.0 29.7
2017-Apr-25 15:05N 25°28' W 076°37'0 0.0 29.7
2017-Apr-25 14:16N 25°28' W 076°37'1 4.9 29.3
2017-Apr-25 14:06N 25°28' W 076°38'0 0.0
2017-Apr-25 13:02N 25°28' W 076°38'1 1.1 28.4
2017-Apr-25 12:33N 25°28' W 076°37'0 0.0 27.5
2017-Apr-25 12:30N 25°28' W 076°37'112.0 27.5
2017-Apr-25 12:27N 25°28' W 076°37'0 0.0 27.5
2017-Apr-25 12:22N 25°28' W 076°37'0 0.0 26.6
2017-Apr-25 11:52N 25°28' W 076°37'0 0.0 24.5
2017-Apr-25 11:48N 25°28' W 076°37'0 0.0 24.5
2017-Apr-25 11:22N 25°28' W 076°37'1 1.1 23.6
2017-Apr-25 10:50N 25°28' W 076°37'1 1.0 23.2
2017-Apr-25 10:15N 25°28' W 076°37'0 0.0 23.1
2017-Apr-25 10:07N 25°28' W 076°37'0 0.0
2017-Apr-25 09:03N 25°28' W 076°37'0 0.0 23.1
2017-Apr-25 09:00N 25°28' W 076°37'0 0.0 23.1
2017-Apr-25 07:22N 25°28' W 076°37'0 0.0 23.2
2017-Apr-25 07:17N 25°28' W 076°37'0 0.0 23.2
2017-Apr-25 03:30N 25°28' W 076°37'0 0.0 24.4
2017-Apr-25 03:27N 25°28' W 076°37'0 0.0 24.4
2017-Apr-25 02:43N 25°28' W 076°37'0 0.0 24.8
2017-Apr-25 01:50N 25°28' W 076°37'0 0.0 25.3
2017-Apr-25 01:44N 25°28' W 076°37'1 0.8 25.3
2017-Apr-25 00:58N 25°28' W 076°37'0 0.0 26.1
2017-Apr-25 00:43N 25°28' W 076°37'1 1.1 26.4
2017-Apr-25 00:00N 25°28' W 076°37'1 0.6 27.9
2017-Apr-24 23:06N 25°28' W 076°37'1 4.6 31.9
2017-Apr-24 22:59N 25°28' W 076°38'0 0.0 31.9
2017-Apr-24 22:19N 25°28' W 076°38'1 6.5 31.6
2017-Apr-24 22:14N 25°28' W 076°37'0 0.0 31.6
2017-Apr-24 20:30N 25°28' W 076°37'0 0.0 37.6
2017-Apr-24 18:49N 25°28' W 076°37'0 0.0 36.7
2017-Apr-24 18:44N 25°28' W 076°37'0 0.0 36.7
2017-Apr-24 16:14N 25°28' W 076°37'0 0.0 32.0
2017-Apr-24 15:26N 25°28' W 076°37'0 0.0 33.1
2017-Apr-24 14:37N 25°28' W 076°37'0 0.0 31.2
2017-Apr-24 14:31N 25°28' W 076°37'0 0.0 31.2
2017-Apr-24 13:47N 25°28' W 076°37'0 0.0 28.6
2017-Apr-24 12:42N 25°28' W 076°37'0 0.0 27.0
2017-Apr-24 12:36N 25°28' W 076°37'0 0.0 26.9
2017-Apr-24 12:22N 25°28' W 076°37'0 0.0 25.9
2017-Apr-24 11:47N 25°28' W 076°37'0 0.0 23.8
2017-Apr-24 11:00N 25°28' W 076°37'0 0.0 23.2
2017-Apr-24 10:46N 25°28' W 076°37'0 0.0 23.4
2017-Apr-24 10:37N 25°28' W 076°37'0 0.0
2017-Apr-24 10:11N 25°28' W 076°37'0 0.0 23.6
2017-Apr-24 10:06N 25°28' W 076°37'0 0.0 23.7
2017-Apr-24 09:12N 25°28' W 076°37'0 0.0 23.6
2017-Apr-24 09:06N 25°28' W 076°37'0 0.0 23.6
2017-Apr-24 09:05N 25°28' W 076°37'0 0.0 23.6
2017-Apr-24 09:02N 25°28' W 076°37'0 0.0 23.6
2017-Apr-24 07:30N 25°28' W 076°37'0 0.0 23.6
2017-Apr-24 03:47N 25°28' W 076°37'0 0.0 21.9
2017-Apr-24 03:03N 25°28' W 076°37'0 0.0 24.1
2017-Apr-24 02:12N 25°28' W 076°37'0 0.0 24.1
2017-Apr-24 02:04N 25°28' W 076°37'0 0.0 24.1
2017-Apr-24 01:25N 25°28' W 076°37'0 0.0 24.1
2017-Apr-24 01:18N 25°28' W 076°37'0 0.0 24.1
2017-Apr-24 00:11N 25°28' W 076°37'0 0.0 24.0
2017-Apr-23 23:37N 25°28' W 076°37'0 0.0 24.1
2017-Apr-23 23:33N 25°28' W 076°37'0 0.0 24.1
2017-Apr-23 23:27N 25°28' W 076°37'0 0.0 24.1
2017-Apr-23 22:31N 25°28' W 076°37'0 0.0 24.1
2017-Apr-23 22:25N 25°28' W 076°37'0 0.0 24.1
2017-Apr-23 21:58N 25°28' W 076°37'0 0.0 24.1
2017-Apr-23 21:45N 25°28' W 076°37'0 0.0 24.0
2017-Apr-23 20:42N 25°28' W 076°37'1 6.0 23.7
2017-Apr-23 20:36N 25°28' W 076°37'1 0.4 23.9
2017-Apr-23 19:01N 25°28' W 076°37'0 0.0 23.7
2017-Apr-23 18:55N 25°28' W 076°37'0 0.0 23.7
2017-Apr-23 15:47N 25°28' W 076°37'0 0.0 23.2
2017-Apr-23 14:56N 25°28' W 076°37'0 0.0 23.2
2017-Apr-23 14:51N 25°28' W 076°37'1 0.8 23.0
2017-Apr-23 14:04N 25°28' W 076°37'0 0.0 23.6
2017-Apr-23 13:13N 25°28' W 076°37'1 1.7 23.7
2017-Apr-23 12:52N 25°28' W 076°37'0 0.0 24.0
2017-Apr-23 12:47N 25°28' W 076°37'0 0.0 24.0
2017-Apr-23 12:13N 25°28' W 076°37'0 0.0 24.0
2017-Apr-23 11:17N 25°28' W 076°37'0 0.0 23.2
2017-Apr-23 11:11N 25°28' W 076°37'0 0.0 23.2
2017-Apr-23 10:35N 25°28' W 076°37'0 0.0 24.1
2017-Apr-23 10:32N 25°28' W 076°37'1 0.9 24.1
2017-Apr-23 09:37N 25°28' W 076°37'1 9.7
2017-Apr-23 09:32N 25°28' W 076°37'0 0.0 23.9
2017-Apr-23 09:22N 25°28' W 076°37'0 0.0 24.0
2017-Apr-23 07:37N 25°28' W 076°37'0 0.0 23.4
2017-Apr-23 02:32N 25°28' W 076°37'0 0.0 24.1
2017-Apr-23 02:28N 25°28' W 076°37'0 0.0 24.1
2017-Apr-23 01:40N 25°28' W 076°37'0 0.0
2017-Apr-23 00:22N 25°28' W 076°37'0 0.0 24.6
2017-Apr-23 00:05N 25°28' W 076°37'0 0.0 24.6
2017-Apr-22 22:42N 25°28' W 076°37'0 0.0 25.2
2017-Apr-22 22:22N 25°28' W 076°37'0 0.0 25.4
2017-Apr-22 22:12N 25°28' W 076°37'0 0.0 25.4
2017-Apr-22 20:52N 25°28' W 076°37'0 0.0 26.7
2017-Apr-22 19:12N 25°28' W 076°37'0 0.0 29.6
2017-Apr-22 19:06N 25°28' W 076°37'0 0.0
2017-Apr-22 16:05N 25°28' W 076°37'0 0.0 26.2
2017-Apr-22 15:18N 25°28' W 076°37'0 0.0 25.3
2017-Apr-22 15:15N 25°28' W 076°37'0 0.0 25.3
2017-Apr-22 14:27N 25°28' W 076°37'0 0.0
2017-Apr-22 14:24N 25°28' W 076°37'0 0.0 24.4
2017-Apr-22 13:35N 25°28' W 076°37'0 0.0 23.9
2017-Apr-22 13:03N 25°28' W 076°37'0 0.0 23.5
2017-Apr-22 13:00N 25°28' W 076°37'0 0.0 23.5
2017-Apr-22 12:37N 25°28' W 076°37'0 0.0 23.1
2017-Apr-22 11:48N 25°28' W 076°37'0 0.0 22.6
2017-Apr-22 11:43N 25°28' W 076°37'0 0.0 22.6
2017-Apr-22 11:20N 25°28' W 076°37'0 0.0
2017-Apr-22 10:57N 25°28' W 076°37'0 0.0 22.4
2017-Apr-22 10:06N 25°28' W 076°37'0 0.0 22.1
2017-Apr-22 09:33N 25°28' W 076°37'0 0.0 21.9
2017-Apr-22 09:30N 25°28' W 076°37'0 0.0 21.9
2017-Apr-22 07:51N 25°28' W 076°37'0 0.0 23.3
2017-Apr-22 02:52N 25°28' W 076°37'0 0.0 23.7
2017-Apr-22 02:48N 25°28' W 076°37'0 0.0 23.7
2017-Apr-22 02:05N 25°28' W 076°37'0 0.0 23.9
2017-Apr-22 01:11N 25°28' W 076°37'1 0.9 24.0
2017-Apr-22 00:33N 25°28' W 076°37'0 0.0 24.3
2017-Apr-22 00:14N 25°28' W 076°37'1 0.4 24.4
2017-Apr-21 22:58N 25°28' W 076°37'0 0.0 25.1
2017-Apr-21 22:52N 25°28' W 076°37'0 0.0
2017-Apr-21 22:50N 25°28' W 076°37'0 0.0 25.2
2017-Apr-21 22:36N 25°28' W 076°37'0 0.0 25.4
2017-Apr-21 21:04N 25°28' W 076°37'0 0.0 26.6
2017-Apr-21 21:00N 25°28' W 076°37'   26.6
Track history (hours):
 
Tides and Currents Weather Stations Pressure Air Temp Water Temp Dewpoint Dewpoint Depression Visibility Wind Speed Wind Dir Waves Ship Positions

Drifting buoy 13526

Last reported at 2017-May-01 20:48 UTC. Time now 2017-Jul-28 18:49 UTC.
Position N 25°28' W 076°37'.
Warning: this ship's position is months out of date.

Water temperature 31.2 ° C

Date/timePositionNaut miles runAvg speedWind from/ knotsBaromVisibWave heightAir tempDewpointWater temp
2017-May-01 20:48N 25°28' W 076°37'0 0.0 31.2
2017-May-01 19:06N 25°28' W 076°37'0 0.0 30.4
2017-May-01 15:31N 25°28' W 076°37'0 0.0 29.1
2017-May-01 15:28N 25°28' W 076°37'0 0.0 29.1
2017-May-01 14:44N 25°28' W 076°37'0 0.0 28.8
2017-May-01 14:40N 25°28' W 076°37'0 0.0 28.8
2017-May-01 13:50N 25°28' W 076°37'0 0.0 28.7
2017-May-01 13:02N 25°28' W 076°37'0 0.0 28.3
2017-May-01 12:59N 25°28' W 076°37'1 9.0 28.3
2017-May-01 12:55N 25°28' W 076°37'0 0.0 28.3
2017-May-01 12:13N 25°28' W 076°37'1 6.9 27.0
2017-May-01 12:06N 25°28' W 076°38'110.8 26.2
2017-May-01 12:03N 25°28' W 076°37'0 0.0 26.2
2017-May-01 11:20N 25°28' W 076°37'0 0.0 23.8
2017-May-01 10:34N 25°28' W 076°37'0 0.0 23.6
2017-May-01 10:29N 25°28' W 076°37'0 0.0 23.6
2017-May-01 10:26N 25°28' W 076°37'0 0.0 23.6
2017-May-01 09:31N 25°28' W 076°37'0 0.0 23.9
2017-May-01 09:26N 25°28' W 076°37'0 0.0 23.9
2017-May-01 07:50N 25°28' W 076°37'0 0.0 23.9
2017-May-01 03:06N 25°28' W 076°37'0 0.0 24.3
2017-May-01 03:01N 25°28' W 076°37'0 0.0 24.3
2017-May-01 02:18N 25°28' W 076°37'0 0.0 24.3
2017-May-01 01:22N 25°28' W 076°37'0 0.0 24.4
2017-May-01 01:20N 25°28' W 076°37'0 0.0 24.4
2017-May-01 00:54N 25°28' W 076°37'0 0.0 24.4
2017-May-01 00:31N 25°28' W 076°37'0 0.0 24.5
2017-May-01 00:28N 25°28' W 076°37'0 0.0 24.5
2017-Apr-30 23:51N 25°28' W 076°37'1 1.0 24.9
2017-Apr-30 23:19N 25°28' W 076°38'1 5.4 25.5
2017-Apr-30 23:13N 25°28' W 076°37'0 0.0 25.5
2017-Apr-30 22:50N 25°28' W 076°37'0 0.0 26.3
2017-Apr-30 22:47N 25°28' W 076°37'0 0.0 26.3
2017-Apr-30 22:11N 25°28' W 076°37'0 0.0 27.8
2017-Apr-30 22:05N 25°28' W 076°37'0 0.0 28.1
2017-Apr-30 21:35N 25°28' W 076°37'0 0.0 28.8
2017-Apr-30 21:02N 25°28' W 076°37'0 0.0 29.1
2017-Apr-30 20:59N 25°28' W 076°37'0 0.0 29.1
2017-Apr-30 19:21N 25°28' W 076°37'0 0.0 28.9
2017-Apr-30 19:15N 25°28' W 076°37'0 0.0 28.9
2017-Apr-30 15:51N 25°28' W 076°37'0 0.0 28.5
2017-Apr-30 15:02N 25°28' W 076°37'0 0.0 27.8
2017-Apr-30 14:05N 25°28' W 076°37'136.0 27.9
2017-Apr-30 14:04N 25°28' W 076°37'0 0.0 27.7
2017-Apr-30 13:10N 25°28' W 076°37'0 0.0 26.7
2017-Apr-30 13:06N 25°28' W 076°37'0 0.0 26.8
2017-Apr-30 12:36N 25°28' W 076°37'1 0.6 26.7
2017-Apr-30 11:32N 25°28' W 076°37'0 0.0 25.1
2017-Apr-30 11:24N 25°28' W 076°37'0 0.0 25.1
2017-Apr-30 10:57N 25°28' W 076°37'0 0.0 24.0
2017-Apr-30 09:42N 25°28' W 076°37'0 0.0 23.9
2017-Apr-30 09:37N 25°28' W 076°37'0 0.0 24.0
2017-Apr-30 09:16N 25°28' W 076°37'0 0.0 24.1
2017-Apr-30 09:13N 25°28' W 076°37'0 0.0 24.1
2017-Apr-30 08:05N 25°28' W 076°37'0 0.0 24.1
2017-Apr-30 08:00N 25°28' W 076°37'0 0.0 24.1
2017-Apr-30 07:57N 25°28' W 076°37'0 0.0 24.1
2017-Apr-30 03:26N 25°28' W 076°37'0 0.0 24.5
2017-Apr-30 03:21N 25°28' W 076°37'0 0.0
2017-Apr-30 02:42N 25°28' W 076°37'0 0.0 24.6
2017-Apr-30 02:37N 25°28' W 076°37'0 0.0 24.7
2017-Apr-30 01:48N 25°28' W 076°37'0 0.0 24.7
2017-Apr-30 01:40N 25°28' W 076°37'0 0.0 24.7
2017-Apr-30 00:37N 25°28' W 076°37'0 0.0 24.9
2017-Apr-30 00:14N 25°28' W 076°37'0 0.0 25.0
2017-Apr-29 23:50N 25°28' W 076°37'0 0.0 25.3
2017-Apr-29 23:47N 25°28' W 076°37'1 0.7 25.3
2017-Apr-29 23:02N 25°28' W 076°38'1 8.1 27.3
2017-Apr-29 22:58N 25°28' W 076°37'0 0.0 27.3
2017-Apr-29 22:36N 25°28' W 076°37'0 0.0 28.3
2017-Apr-29 22:06N 25°28' W 076°37'1 0.7 28.8
2017-Apr-29 21:12N 25°28' W 076°37'1 0.4 30.0
2017-Apr-29 19:32N 25°28' W 076°37'0 0.0 29.9
2017-Apr-29 19:28N 25°28' W 076°37'0 0.0 29.9
2017-Apr-29 19:26N 25°28' W 076°37'0 0.0 29.9
2017-Apr-29 16:11N 25°28' W 076°37'0 0.0 29.2
2017-Apr-29 16:10N 25°28' W 076°37'0 0.0 29.6
2017-Apr-29 15:24N 25°28' W 076°37'0 0.0 29.4
2017-Apr-29 14:33N 25°28' W 076°37'0 0.0 28.9
2017-Apr-29 14:27N 25°28' W 076°37'0 0.0 28.9
2017-Apr-29 13:41N 25°28' W 076°37'0 0.0 28.4
2017-Apr-29 13:21N 25°28' W 076°37'136.0 28.2
2017-Apr-29 13:20N 25°28' W 076°37'0 0.0 27.9
2017-Apr-29 13:03N 25°28' W 076°37'1 0.4 27.7
2017-Apr-29 11:43N 25°28' W 076°37'0 0.0 25.9
2017-Apr-29 11:37N 25°28' W 076°37'0 0.0 25.5
2017-Apr-29 11:29N 25°28' W 076°37'0 0.0 25.5
2017-Apr-29 11:28N 25°28' W 076°37'0 0.0 25.5
2017-Apr-29 11:22N 25°28' W 076°37'0 0.0 24.6
2017-Apr-29 09:51N 25°28' W 076°37'0 0.0
2017-Apr-29 09:50N 25°28' W 076°37'0 0.0 24.1
2017-Apr-29 09:45N 25°28' W 076°37'0 0.0 24.1
2017-Apr-29 08:15N 25°28' W 076°37'0 0.0 24.1
2017-Apr-29 08:10N 25°28' W 076°37'0 0.0 24.1
2017-Apr-29 03:45N 25°28' W 076°37'0 0.0 24.6
2017-Apr-29 03:02N 25°28' W 076°37'0 0.0 24.7
2017-Apr-29 02:59N 25°28' W 076°37'0 0.0 24.7
2017-Apr-29 02:03N 25°28' W 076°37'0 0.0 24.9
2017-Apr-29 02:00N 25°28' W 076°37'0 0.0 24.9
2017-Apr-29 01:21N 25°28' W 076°37'1 5.1 24.9
2017-Apr-29 01:14N 25°28' W 076°37'0 0.0 24.9
2017-Apr-29 00:51N 25°28' W 076°37'1 1.2 25.1
2017-Apr-29 00:21N 25°28' W 076°37'0 0.0 25.2
2017-Apr-29 00:18N 25°28' W 076°37'1 0.5 25.2
2017-Apr-28 23:13N 25°28' W 076°38'1 5.4 26.2
2017-Apr-28 23:07N 25°28' W 076°37'1 8.1
2017-Apr-28 23:03N 25°28' W 076°38'1 1.2 26.5
2017-Apr-28 22:36N 25°28' W 076°37'0 0.0 27.1
2017-Apr-28 22:32N 25°28' W 076°37'0 0.0 27.9
2017-Apr-28 21:21N 25°28' W 076°37'0 0.0 29.6
2017-Apr-28 19:45N 25°28' W 076°37'0 0.0 30.7
2017-Apr-28 19:42N 25°28' W 076°37'0 0.0 30.7
2017-Apr-28 19:36N 25°28' W 076°37'0 0.0 30.7
2017-Apr-28 16:30N 25°28' W 076°37'0 0.0 29.7
2017-Apr-28 15:46N 25°28' W 076°37'0 0.0 29.5
2017-Apr-28 14:52N 25°28' W 076°37'0 0.0 29.2
2017-Apr-28 14:49N 25°28' W 076°37'0 0.0 29.2
2017-Apr-28 14:03N 25°28' W 076°37'118.0 29.0
2017-Apr-28 14:01N 25°28' W 076°37'0 0.0 29.0
2017-Apr-28 13:32N 25°28' W 076°37'0 0.0 28.8
2017-Apr-28 13:11N 25°28' W 076°37'1 0.5 28.6
2017-Apr-28 12:00N 25°28' W 076°37'0 0.0 27.0
2017-Apr-28 11:51N 25°28' W 076°37'0 0.0 27.0
2017-Apr-28 11:49N 25°28' W 076°37'0 0.0 26.5
2017-Apr-28 10:20N 25°28' W 076°37'0 0.0 24.4
2017-Apr-28 10:04N 25°28' W 076°37'0 0.0 24.4
2017-Apr-28 08:29N 25°28' W 076°37'0 0.0 24.4
2017-Apr-28 08:25N 25°28' W 076°37'1 8.1 24.4
2017-Apr-28 08:21N 25°28' W 076°37'1 0.3 24.4
2017-Apr-28 06:43N 25°28' W 076°37'0 0.0
2017-Apr-28 03:20N 25°28' W 076°37'0 0.0 24.8
2017-Apr-28 03:17N 25°28' W 076°37'0 0.0 24.8
2017-Apr-28 02:30N 25°28' W 076°37'0 0.0 24.8
2017-Apr-28 01:41N 25°28' W 076°37'1 7.2 25.0
2017-Apr-28 01:36N 25°28' W 076°37'1 1.1 25.1
2017-Apr-28 01:04N 25°28' W 076°37'0 0.0 25.1
2017-Apr-28 00:49N 25°28' W 076°37'0 0.0 25.2
2017-Apr-28 00:45N 25°28' W 076°37'0 0.0 25.2
2017-Apr-28 00:42N 25°28' W 076°37'1 0.4 25.2
2017-Apr-27 23:21N 25°28' W 076°38'1 8.1 28.8
2017-Apr-27 23:17N 25°28' W 076°37'0 0.0 28.8
2017-Apr-27 23:13N 25°28' W 076°37'0 0.0 28.8
2017-Apr-27 23:06N 25°28' W 076°37'0 0.0 30.0
2017-Apr-27 21:46N 25°28' W 076°37'0 0.0 32.7
2017-Apr-27 21:35N 25°28' W 076°37'0 0.0 33.6
2017-Apr-27 19:51N 25°28' W 076°37'0 0.0
2017-Apr-27 19:50N 25°28' W 076°37'0 0.0 35.6
2017-Apr-27 16:04N 25°28' W 076°37'0 0.0 29.9
2017-Apr-27 15:14N 25°28' W 076°37'0 0.0 26.4
2017-Apr-27 15:10N 25°28' W 076°37'0 0.0 26.4
2017-Apr-27 14:21N 25°28' W 076°37'0 0.0 23.2
2017-Apr-27 13:46N 25°28' W 076°37'0 0.0 22.8
2017-Apr-27 13:31N 25°28' W 076°37'0 0.0 22.6
2017-Apr-27 12:13N 25°28' W 076°37'0 0.0 23.4
2017-Apr-27 12:05N 25°28' W 076°37'0 0.0
2017-Apr-27 12:03N 25°28' W 076°37'0 0.0 23.2
2017-Apr-27 10:51N 25°28' W 076°37'0 0.0 22.1
2017-Apr-27 10:45N 25°28' W 076°37'0 0.0 22.1
2017-Apr-27 10:22N 25°28' W 076°37'0 0.0
2017-Apr-27 10:15N 25°28' W 076°37'0 0.0 23.2
2017-Apr-27 09:06N 25°28' W 076°37'0 0.0 24.6
2017-Apr-27 08:35N 25°28' W 076°37'0 0.0 24.8
2017-Apr-27 06:57N 25°28' W 076°37'0 0.0 24.7
2017-Apr-27 06:52N 25°28' W 076°37'0 0.0 24.7
2017-Apr-27 03:37N 25°28' W 076°37'0 0.0 24.8
2017-Apr-27 02:48N 25°28' W 076°37'0 0.0 24.7
2017-Apr-27 02:44N 25°28' W 076°37'0 0.0 24.7
2017-Apr-27 02:01N 25°28' W 076°37'0 0.0 24.7
2017-Apr-27 01:56N 25°28' W 076°37'0 0.0 24.7
2017-Apr-27 01:16N 25°28' W 076°37'0 0.0 24.8
2017-Apr-27 01:06N 25°28' W 076°37'0 0.0 24.9
2017-Apr-27 01:03N 25°28' W 076°37'0 0.0 24.9
2017-Apr-26 23:52N 25°28' W 076°37'0 0.0 25.6
2017-Apr-26 23:49N 25°28' W 076°37'0 0.0 25.6
2017-Apr-26 23:44N 25°28' W 076°37'1 4.6 25.6
2017-Apr-26 23:37N 25°28' W 076°38'1 5.4 26.4
2017-Apr-26 23:31N 25°28' W 076°37'0 0.0 26.4
2017-Apr-26 22:12N 25°28' W 076°37'0 0.0 28.1
2017-Apr-26 22:05N 25°28' W 076°37'1 0.4 29.4
2017-Apr-26 20:05N 25°28' W 076°37'1 0.5 31.6
2017-Apr-26 18:22N 25°28' W 076°37'0 0.0 32.5
2017-Apr-26 15:35N 25°28' W 076°37'0 0.0 24.1
2017-Apr-26 15:32N 25°28' W 076°37'0 0.0 24.1
2017-Apr-26 14:45N 25°28' W 076°37'0 0.0 23.0
2017-Apr-26 13:51N 25°28' W 076°37'0 0.0 23.3
2017-Apr-26 12:37N 25°28' W 076°37'0 0.0 23.2
2017-Apr-26 12:16N 25°28' W 076°37'0 0.0 23.4
2017-Apr-26 11:22N 25°28' W 076°37'0 0.0 22.8
2017-Apr-26 10:59N 25°28' W 076°37'0 0.0 22.7
2017-Apr-26 10:36N 25°28' W 076°37'0 0.0
2017-Apr-26 09:43N 25°28' W 076°37'0 0.0 23.9
2017-Apr-26 09:36N 25°28' W 076°37'0 0.0 23.8
2017-Apr-26 08:49N 25°28' W 076°37'110.8 23.7
2017-Apr-26 08:46N 25°28' W 076°37'1 0.4 23.7
2017-Apr-26 07:09N 25°28' W 076°37'116.2 23.4
2017-Apr-26 07:06N 25°28' W 076°37'0 0.0 23.4
2017-Apr-26 03:05N 25°28' W 076°37'1 0.7 23.1
2017-Apr-26 02:21N 25°28' W 076°38'1 5.4 23.5
2017-Apr-26 02:15N 25°28' W 076°37'0 0.0 23.5
2017-Apr-26 01:29N 25°28' W 076°37'1 7.2 23.9
2017-Apr-26 01:24N 25°28' W 076°37'1 0.5 24.0
2017-Apr-26 00:15N 25°28' W 076°37'0 0.0 25.5
2017-Apr-26 00:11N 25°28' W 076°37'1 3.4 25.5
2017-Apr-25 23:49N 25°28' W 076°36'1 1.0 28.3
2017-Apr-25 22:34N 25°28' W 076°37'0 0.0 32.6
2017-Apr-25 22:32N 25°28' W 076°37'0 0.0 32.6
2017-Apr-25 22:06N 25°28' W 076°37'0 0.0
2017-Apr-25 22:02N 25°28' W 076°37'0 0.0 33.2
2017-Apr-25 20:21N 25°28' W 076°37'0 0.0 31.8
2017-Apr-25 20:18N 25°28' W 076°37'1 7.2 31.8
2017-Apr-25 20:13N 25°28' W 076°37'0 0.0 31.8
2017-Apr-25 18:36N 25°28' W 076°37'112.0 30.5
2017-Apr-25 18:33N 25°28' W 076°37'0 0.0
2017-Apr-25 15:52N 25°28' W 076°37'0 0.0 29.7
2017-Apr-25 15:05N 25°28' W 076°37'0 0.0 29.7
2017-Apr-25 14:16N 25°28' W 076°37'1 4.9 29.3
2017-Apr-25 14:06N 25°28' W 076°38'0 0.0
2017-Apr-25 13:02N 25°28' W 076°38'1 1.1 28.4
2017-Apr-25 12:33N 25°28' W 076°37'0 0.0 27.5
2017-Apr-25 12:30N 25°28' W 076°37'112.0 27.5
2017-Apr-25 12:27N 25°28' W 076°37'0 0.0 27.5
2017-Apr-25 12:22N 25°28' W 076°37'0 0.0 26.6
2017-Apr-25 11:52N 25°28' W 076°37'0 0.0 24.5
2017-Apr-25 11:48N 25°28' W 076°37'0 0.0 24.5
2017-Apr-25 11:22N 25°28' W 076°37'1 1.1 23.6
2017-Apr-25 10:50N 25°28' W 076°37'1 1.0 23.2
2017-Apr-25 10:15N 25°28' W 076°37'0 0.0 23.1
2017-Apr-25 10:07N 25°28' W 076°37'0 0.0
2017-Apr-25 09:03N 25°28' W 076°37'0 0.0 23.1
2017-Apr-25 09:00N 25°28' W 076°37'0 0.0 23.1
2017-Apr-25 07:22N 25°28' W 076°37'0 0.0 23.2
2017-Apr-25 07:17N 25°28' W 076°37'0 0.0 23.2
2017-Apr-25 03:30N 25°28' W 076°37'0 0.0 24.4
2017-Apr-25 03:27N 25°28' W 076°37'0 0.0 24.4
2017-Apr-25 02:43N 25°28' W 076°37'0 0.0 24.8
2017-Apr-25 01:50N 25°28' W 076°37'0 0.0 25.3
2017-Apr-25 01:44N 25°28' W 076°37'1 0.8 25.3
2017-Apr-25 00:58N 25°28' W 076°37'0 0.0 26.1
2017-Apr-25 00:43N 25°28' W 076°37'1 1.1 26.4
2017-Apr-25 00:00N 25°28' W 076°37'1 0.6 27.9
2017-Apr-24 23:06N 25°28' W 076°37'1 4.6 31.9
2017-Apr-24 22:59N 25°28' W 076°38'0 0.0 31.9
2017-Apr-24 22:19N 25°28' W 076°38'1 6.5 31.6
2017-Apr-24 22:14N 25°28' W 076°37'0 0.0 31.6
2017-Apr-24 20:30N 25°28' W 076°37'0 0.0 37.6
2017-Apr-24 18:49N 25°28' W 076°37'0 0.0 36.7
2017-Apr-24 18:44N 25°28' W 076°37'0 0.0 36.7
2017-Apr-24 16:14N 25°28' W 076°37'0 0.0 32.0
2017-Apr-24 15:26N 25°28' W 076°37'0 0.0 33.1
2017-Apr-24 14:37N 25°28' W 076°37'0 0.0 31.2
2017-Apr-24 14:31N 25°28' W 076°37'0 0.0 31.2
2017-Apr-24 13:47N 25°28' W 076°37'0 0.0 28.6
2017-Apr-24 12:42N 25°28' W 076°37'0 0.0 27.0
2017-Apr-24 12:36N 25°28' W 076°37'0 0.0 26.9
2017-Apr-24 12:22N 25°28' W 076°37'0 0.0 25.9
2017-Apr-24 11:47N 25°28' W 076°37'0 0.0 23.8
2017-Apr-24 11:00N 25°28' W 076°37'0 0.0 23.2
2017-Apr-24 10:46N 25°28' W 076°37'0 0.0 23.4
2017-Apr-24 10:37N 25°28' W 076°37'0 0.0
2017-Apr-24 10:11N 25°28' W 076°37'0 0.0 23.6
2017-Apr-24 10:06N 25°28' W 076°37'0 0.0 23.7
2017-Apr-24 09:12N 25°28' W 076°37'0 0.0 23.6
2017-Apr-24 09:06N 25°28' W 076°37'0 0.0 23.6
2017-Apr-24 09:05N 25°28' W 076°37'0 0.0 23.6
2017-Apr-24 09:02N 25°28' W 076°37'0 0.0 23.6
2017-Apr-24 07:30N 25°28' W 076°37'0 0.0 23.6
2017-Apr-24 03:47N 25°28' W 076°37'0 0.0 21.9
2017-Apr-24 03:03N 25°28' W 076°37'0 0.0 24.1
2017-Apr-24 02:12N 25°28' W 076°37'0 0.0 24.1
2017-Apr-24 02:04N 25°28' W 076°37'0 0.0 24.1
2017-Apr-24 01:25N 25°28' W 076°37'0 0.0 24.1
2017-Apr-24 01:18N 25°28' W 076°37'0 0.0 24.1
2017-Apr-24 00:11N 25°28' W 076°37'0 0.0 24.0
2017-Apr-23 23:37N 25°28' W 076°37'0 0.0 24.1
2017-Apr-23 23:33N 25°28' W 076°37'0 0.0 24.1
2017-Apr-23 23:27N 25°28' W 076°37'0 0.0 24.1
2017-Apr-23 22:31N 25°28' W 076°37'0 0.0 24.1
2017-Apr-23 22:25N 25°28' W 076°37'0 0.0 24.1
2017-Apr-23 21:58N 25°28' W 076°37'0 0.0 24.1
2017-Apr-23 21:45N 25°28' W 076°37'0 0.0 24.0
2017-Apr-23 20:42N 25°28' W 076°37'1 6.0 23.7
2017-Apr-23 20:36N 25°28' W 076°37'1 0.4 23.9
2017-Apr-23 19:01N 25°28' W 076°37'0 0.0 23.7
2017-Apr-23 18:55N 25°28' W 076°37'0 0.0 23.7
2017-Apr-23 15:47N 25°28' W 076°37'0 0.0 23.2
2017-Apr-23 14:56N 25°28' W 076°37'0 0.0 23.2
2017-Apr-23 14:51N 25°28' W 076°37'1 0.8 23.0
2017-Apr-23 14:04N 25°28' W 076°37'0 0.0 23.6
2017-Apr-23 13:13N 25°28' W 076°37'1 1.7 23.7
2017-Apr-23 12:52N 25°28' W 076°37'0 0.0 24.0
2017-Apr-23 12:47N 25°28' W 076°37'0 0.0 24.0
2017-Apr-23 12:13N 25°28' W 076°37'0 0.0 24.0
2017-Apr-23 11:17N 25°28' W 076°37'0 0.0 23.2
2017-Apr-23 11:11N 25°28' W 076°37'0 0.0 23.2
2017-Apr-23 10:35N 25°28' W 076°37'0 0.0 24.1
2017-Apr-23 10:32N 25°28' W 076°37'1 0.9 24.1
2017-Apr-23 09:37N 25°28' W 076°37'1 9.7
2017-Apr-23 09:32N 25°28' W 076°37'0 0.0 23.9
2017-Apr-23 09:22N 25°28' W 076°37'0 0.0 24.0
2017-Apr-23 07:37N 25°28' W 076°37'0 0.0 23.4
2017-Apr-23 02:32N 25°28' W 076°37'0 0.0 24.1
2017-Apr-23 02:28N 25°28' W 076°37'0 0.0 24.1
2017-Apr-23 01:40N 25°28' W 076°37'0 0.0
2017-Apr-23 00:22N 25°28' W 076°37'0 0.0 24.6
2017-Apr-23 00:05N 25°28' W 076°37'0 0.0 24.6
2017-Apr-22 22:42N 25°28' W 076°37'0 0.0 25.2
2017-Apr-22 22:22N 25°28' W 076°37'0 0.0 25.4
2017-Apr-22 22:12N 25°28' W 076°37'0 0.0 25.4
2017-Apr-22 20:52N 25°28' W 076°37'0 0.0 26.7
2017-Apr-22 19:12N 25°28' W 076°37'0 0.0 29.6
2017-Apr-22 19:06N 25°28' W 076°37'0 0.0
2017-Apr-22 16:05N 25°28' W 076°37'0 0.0 26.2
2017-Apr-22 15:18N 25°28' W 076°37'0 0.0 25.3
2017-Apr-22 15:15N 25°28' W 076°37'0 0.0 25.3
2017-Apr-22 14:27N 25°28' W 076°37'0 0.0
2017-Apr-22 14:24N 25°28' W 076°37'0 0.0 24.4
2017-Apr-22 13:35N 25°28' W 076°37'0 0.0 23.9
2017-Apr-22 13:03N 25°28' W 076°37'0 0.0 23.5
2017-Apr-22 13:00N 25°28' W 076°37'0 0.0 23.5
2017-Apr-22 12:37N 25°28' W 076°37'0 0.0 23.1
2017-Apr-22 11:48N 25°28' W 076°37'0 0.0 22.6
2017-Apr-22 11:43N 25°28' W 076°37'0 0.0 22.6
2017-Apr-22 11:20N 25°28' W 076°37'0 0.0
2017-Apr-22 10:57N 25°28' W 076°37'0 0.0 22.4
2017-Apr-22 10:06N 25°28' W 076°37'0 0.0 22.1
2017-Apr-22 09:33N 25°28' W 076°37'0 0.0 21.9
2017-Apr-22 09:30N 25°28' W 076°37'0 0.0 21.9
2017-Apr-22 07:51N 25°28' W 076°37'0 0.0 23.3
2017-Apr-22 02:52N 25°28' W 076°37'0 0.0 23.7
2017-Apr-22 02:48N 25°28' W 076°37'0 0.0 23.7
2017-Apr-22 02:05N 25°28' W 076°37'0 0.0 23.9
2017-Apr-22 01:11N 25°28' W 076°37'1 0.9 24.0
2017-Apr-22 00:33N 25°28' W 076°37'0 0.0 24.3
2017-Apr-22 00:14N 25°28' W 076°37'1 0.4 24.4
2017-Apr-21 22:58N 25°28' W 076°37'0 0.0 25.1
2017-Apr-21 22:52N 25°28' W 076°37'0 0.0
2017-Apr-21 22:50N 25°28' W 076°37'0 0.0 25.2
2017-Apr-21 22:36N 25°28' W 076°37'0 0.0 25.4
2017-Apr-21 21:04N 25°28' W 076°37'0 0.0 26.6
2017-Apr-21 21:00N 25°28' W 076°37'   26.6

Dump ship's entire track history